createdAt,value
2023-04-18T00:02:23.393Z,98708.48
2023-04-18T00:04:51.751Z,98711.31
2023-04-18T00:07:19.972Z,98705.80
2023-04-18T00:09:47.918Z,98709.93
2023-04-18T00:12:16.196Z,98711.11
2023-04-18T00:14:44.406Z,98708.59
2023-04-18T00:17:13.590Z,98710.64
2023-04-18T00:19:43.391Z,98714.39
2023-04-18T00:23:13.307Z,98715.73
2023-04-18T00:26:21.766Z,98718.69
2023-04-18T00:29:09.826Z,98717.98
2023-04-18T00:31:39.711Z,98716.20
2023-04-18T00:34:07.703Z,98719.86
2023-04-18T00:36:35.921Z,98718.77
2023-04-18T00:39:04.131Z,98719.63
2023-04-18T00:41:32.712Z,98720.70
2023-04-18T00:44:01.148Z,98721.67
2023-04-18T00:46:29.270Z,98718.76
2023-04-18T00:48:57.475Z,98716.13
2023-04-18T00:51:25.747Z,98717.88
2023-04-18T00:53:54.130Z,98719.79
2023-04-18T00:56:23.839Z,98718.85
2023-04-18T00:58:51.995Z,98713.41
2023-04-18T01:01:20.078Z,98714.73
2023-04-18T01:03:49.479Z,98711.21
2023-04-18T01:06:18.335Z,98709.13
2023-04-18T01:08:46.506Z,98708.45
2023-04-18T01:11:34.388Z,98711.73
2023-04-18T01:14:05.546Z,98714.90
2023-04-18T01:16:40.105Z,98715.14
2023-04-18T01:19:08.519Z,98710.88
2023-04-18T01:21:37.505Z,98710.92
2023-04-18T01:24:12.555Z,98715.04
2023-04-18T01:26:44.227Z,98709.48
2023-04-18T01:29:12.439Z,98705.70
2023-04-18T01:31:46.138Z,98709.79
2023-04-18T01:34:18.173Z,98710.96
2023-04-18T01:36:46.803Z,98709.31
2023-04-18T01:39:15.552Z,98710.17
2023-04-18T01:41:44.538Z,98711.55
2023-04-18T01:44:12.842Z,98711.69
2023-04-18T01:46:41.277Z,98709.48
2023-04-18T01:49:10.034Z,98709.52
2023-04-18T01:51:39.021Z,98709.02
2023-04-18T01:54:15.788Z,98710.31
2023-04-18T01:56:44.010Z,98712.38
2023-04-18T01:59:12.096Z,98707.64
2023-04-18T02:01:40.677Z,98710.33
2023-04-18T02:04:09.004Z,98705.68
2023-04-18T02:06:37.205Z,98706.58
2023-04-18T02:09:05.355Z,98705.98
2023-04-18T02:11:34.394Z,98706.64
2023-04-18T02:14:05.153Z,98708.94
2023-04-18T02:16:35.474Z,98704.77
2023-04-18T02:19:12.533Z,98698.48
2023-04-18T02:21:44.918Z,98702.32
2023-04-18T02:24:13.806Z,98702.85
2023-04-18T02:26:44.435Z,98702.08
2023-04-18T02:29:12.720Z,98699.05
2023-04-18T02:31:41.761Z,98701.68
2023-04-18T02:34:10.735Z,98696.50
2023-04-18T02:36:39.032Z,98697.83
2023-04-18T02:39:07.131Z,98697.86
2023-04-18T02:41:37.642Z,98701.04
2023-04-18T02:44:07.172Z,98707.90
2023-04-18T02:46:37.461Z,98709.80
2023-04-18T02:49:07.540Z,98704.79
2023-04-18T02:51:36.200Z,98708.48
2023-04-18T02:54:05.183Z,98709.38
2023-04-18T02:56:44.282Z,98711.39
2023-04-18T02:59:27.835Z,98712.31
2023-04-18T03:02:47.974Z,98713.58
2023-04-18T03:05:47.055Z,98716.48
2023-04-18T03:08:16.295Z,98717.77
2023-04-18T03:10:44.324Z,98717.02
2023-04-18T03:13:12.399Z,98716.05
2023-04-18T03:16:01.203Z,98714.89
2023-04-18T03:19:06.040Z,98710.91
2023-04-18T03:21:36.213Z,98717.14
2023-04-18T03:24:25.236Z,98716.95
2023-04-18T03:26:54.153Z,98719.66
2023-04-18T03:29:24.507Z,98723.55
2023-04-18T03:31:52.955Z,98726.90
2023-04-18T03:34:21.851Z,98728.48
2023-04-18T03:36:50.255Z,98724.36
2023-04-18T03:39:18.761Z,98724.07
2023-04-18T03:41:47.236Z,98729.64
2023-04-18T03:44:15.940Z,98728.20
2023-04-18T03:46:44.508Z,98730.09
2023-04-18T03:49:13.363Z,98730.91
2023-04-18T03:51:49.710Z,98730.21
2023-04-18T03:54:26.245Z,98733.86
2023-04-18T03:56:55.937Z,98733.02
2023-04-18T03:59:24.216Z,98734.41
2023-04-18T04:01:52.313Z,98733.51
2023-04-18T04:04:20.560Z,98730.90
2023-04-18T04:07:09.227Z,98734.66
2023-04-18T04:09:37.597Z,98736.14
2023-04-18T04:12:07.368Z,98737.56
2023-04-18T04:14:35.603Z,98743.13
2023-04-18T04:17:04.947Z,98747.09
2023-04-18T04:19:34.625Z,98747.33
2023-04-18T04:22:09.301Z,98745.89
2023-04-18T04:24:39.301Z,98748.61
2023-04-18T04:27:08.205Z,98750.77
2023-04-18T04:29:39.258Z,98757.17
2023-04-18T04:32:08.313Z,98754.84
2023-04-18T04:34:41.386Z,98760.02
2023-04-18T04:37:14.143Z,98761.79
2023-04-18T04:39:53.737Z,98764.14
2023-04-18T04:42:41.218Z,98768.22
2023-04-18T04:45:14.035Z,98772.98
2023-04-18T04:47:42.079Z,98774.02
2023-04-18T04:50:14.848Z,98776.70
2023-04-18T04:52:43.419Z,98781.65
2023-04-18T04:55:11.755Z,98783.67
2023-04-18T04:57:45.055Z,98784.84
2023-04-18T05:00:40.085Z,98787.30
2023-04-18T05:03:09.918Z,98790.33
2023-04-18T05:05:38.216Z,98796.41
2023-04-18T05:08:26.352Z,98799.12
2023-04-18T05:10:55.406Z,98797.73
2023-04-18T05:13:23.368Z,98794.55
2023-04-18T05:15:53.137Z,98797.58
2023-04-18T05:18:21.957Z,98795.32
2023-04-18T05:20:50.537Z,98797.88
2023-04-18T05:23:18.631Z,98796.09
2023-04-18T05:25:46.804Z,98801.11
2023-04-18T05:28:55.212Z,98805.71
2023-04-18T05:31:23.371Z,98807.81
2023-04-18T05:33:51.365Z,98810.04
2023-04-18T05:36:19.563Z,98810.61
2023-04-18T05:38:55.737Z,98811.80
2023-04-18T05:41:23.664Z,98813.00
2023-04-18T05:44:04.250Z,98808.89
2023-04-18T05:46:33.678Z,98814.02
2023-04-18T05:49:02.498Z,98813.19
2023-04-18T05:51:31.348Z,98818.09
2023-04-18T05:53:59.720Z,98822.88
2023-04-18T05:56:27.733Z,98822.33
2023-04-18T05:58:55.987Z,98823.89
2023-04-18T06:01:24.019Z,98819.95
2023-04-18T06:03:52.022Z,98823.55
2023-04-18T06:06:20.503Z,98826.40
2023-04-18T06:08:48.663Z,98831.33
2023-04-18T06:11:16.756Z,98833.42
2023-04-18T06:13:44.690Z,98835.92
2023-04-18T06:16:13.353Z,98842.23
2023-04-18T06:18:41.450Z,98841.81
2023-04-18T06:21:09.630Z,98844.45
2023-04-18T06:23:38.619Z,98835.48
2023-04-18T06:26:07.488Z,98839.70
2023-04-18T06:29:14.000Z,98840.83
2023-04-18T06:31:42.315Z,98844.35
2023-04-18T06:34:10.397Z,98848.36
2023-04-18T06:36:38.529Z,98846.48
2023-04-18T06:39:06.992Z,98850.30
2023-04-18T06:41:35.300Z,98853.45
2023-04-18T06:44:04.638Z,98866.27
2023-04-18T06:46:33.356Z,98866.83
2023-04-18T06:49:01.616Z,98862.91
2023-04-18T06:51:29.583Z,98864.65
2023-04-18T06:53:58.209Z,98867.45
2023-04-18T06:56:26.457Z,98875.77
2023-04-18T06:59:14.668Z,98879.67
2023-04-18T07:01:51.237Z,98877.47
2023-04-18T07:04:19.797Z,98877.40
2023-04-18T07:06:50.570Z,98877.19
2023-04-18T07:09:18.846Z,98873.23
2023-04-18T07:11:47.003Z,98874.58
2023-04-18T07:14:15.258Z,98878.15
2023-04-18T07:16:43.553Z,98882.45
2023-04-18T07:19:12.000Z,98886.92
2023-04-18T07:21:40.718Z,98879.73
2023-04-18T07:24:09.056Z,98884.09
2023-04-18T07:26:38.249Z,98884.13
2023-04-18T07:29:06.524Z,98883.54
2023-04-18T07:31:34.541Z,98886.31
2023-04-18T07:34:02.634Z,98880.95
2023-04-18T07:36:31.478Z,98882.38
2023-04-18T07:38:59.815Z,98883.11
2023-04-18T07:41:27.886Z,98888.20
2023-04-18T07:43:56.514Z,98888.83
2023-04-18T07:46:24.595Z,98891.27
2023-04-18T07:48:52.923Z,98893.12
2023-04-18T07:51:25.489Z,98892.39
2023-04-18T07:53:53.427Z,98895.88
2023-04-18T07:56:21.732Z,98897.20
2023-04-18T07:59:02.409Z,98898.83
2023-04-18T08:01:31.134Z,98893.04
2023-04-18T08:04:02.037Z,98899.37
2023-04-18T08:06:30.745Z,98901.88
2023-04-18T08:08:59.117Z,98903.70
2023-04-18T08:11:27.167Z,98908.63
2023-04-18T08:13:55.408Z,98908.55
2023-04-18T08:16:23.738Z,98914.85
2023-04-18T08:18:52.036Z,98914.27
2023-04-18T08:21:20.784Z,98913.55
2023-04-18T08:23:49.238Z,98914.99
2023-04-18T08:26:17.279Z,98917.92
2023-04-18T08:28:46.581Z,98916.92
2023-04-18T08:31:15.461Z,98915.92
2023-04-18T08:33:43.529Z,98921.58
2023-04-18T08:36:12.632Z,98920.44
2023-04-18T08:38:40.677Z,98920.02
2023-04-18T08:41:08.802Z,98921.11
2023-04-18T08:43:37.831Z,98922.83
2023-04-18T08:46:06.899Z,98924.97
2023-04-18T08:48:34.899Z,98924.96
2023-04-18T08:51:03.151Z,98924.11
2023-04-18T08:53:33.939Z,98924.29
2023-04-18T08:56:05.651Z,98923.95
2023-04-18T08:58:34.989Z,98926.70
2023-04-18T09:01:03.332Z,98929.55
2023-04-18T09:03:43.392Z,98923.23
2023-04-18T09:06:16.508Z,98927.09
2023-04-18T09:09:04.010Z,98927.13
2023-04-18T09:11:34.460Z,98920.27
2023-04-18T09:14:24.402Z,98919.49
2023-04-18T09:16:53.481Z,98920.65
2023-04-18T09:19:21.913Z,98922.89
2023-04-18T09:21:59.552Z,98922.76
2023-04-18T09:24:34.443Z,98922.29
2023-04-18T09:27:04.185Z,98924.27
2023-04-18T09:29:50.025Z,98922.66
2023-04-18T09:32:30.818Z,98920.11
2023-04-18T09:35:04.014Z,98916.63
2023-04-18T09:37:32.785Z,98918.52
2023-04-18T09:40:00.881Z,98921.08
2023-04-18T09:42:36.242Z,98913.20
2023-04-18T09:45:06.624Z,98906.86
2023-04-18T09:47:36.717Z,98915.04
2023-04-18T09:50:07.543Z,98912.70
2023-04-18T09:52:38.237Z,98909.42
2023-04-18T09:55:09.483Z,98909.21
2023-04-18T09:57:41.780Z,98914.45
2023-04-18T10:00:24.171Z,98917.02
2023-04-18T10:03:05.178Z,98913.47
2023-04-18T10:05:35.738Z,98906.36
2023-04-18T10:08:04.494Z,98908.52
2023-04-18T10:10:33.231Z,98909.30
2023-04-18T10:13:06.557Z,98901.95
2023-04-18T10:15:35.009Z,98906.81
2023-04-18T10:18:09.278Z,98905.88
2023-04-18T10:20:37.263Z,98902.55
2023-04-18T10:23:36.364Z,98901.70
2023-04-18T10:26:11.268Z,98900.08
2023-04-18T10:28:58.890Z,98894.77
2023-04-18T10:31:28.757Z,98891.27
2023-04-18T10:34:05.316Z,98893.80
2023-04-18T10:36:33.797Z,98895.16
2023-04-18T10:39:20.834Z,98884.30
2023-04-18T10:41:51.171Z,98892.43
2023-04-18T10:44:22.732Z,98888.84
2023-04-18T10:46:51.220Z,98889.35
2023-04-18T10:49:30.309Z,98883.36
2023-04-18T10:52:02.433Z,98887.26
2023-04-18T10:54:41.072Z,98881.00
2023-04-18T10:57:10.266Z,98886.84
2023-04-18T10:59:42.598Z,98886.29
2023-04-18T11:02:30.180Z,98878.77
2023-04-18T11:05:00.879Z,98876.55
2023-04-18T11:07:46.153Z,98874.37
2023-04-18T11:10:18.822Z,98869.60
2023-04-18T11:12:47.489Z,98866.73
2023-04-18T11:15:24.168Z,98868.02
2023-04-18T11:17:59.943Z,98867.14
2023-04-18T11:20:29.339Z,98870.98
2023-04-18T11:22:59.474Z,98861.61
2023-04-18T11:25:34.777Z,98868.34
2023-04-18T11:28:04.957Z,98862.45
2023-04-18T11:30:38.571Z,98863.27
2023-04-18T11:33:12.027Z,98868.42
2023-04-18T11:35:49.385Z,98865.16
2023-04-18T11:38:18.670Z,98857.16
2023-04-18T11:40:50.686Z,98862.70
2023-04-18T11:43:25.625Z,98859.09
2023-04-18T11:45:56.324Z,98862.75
2023-04-18T11:48:25.012Z,98859.37
2023-04-18T11:50:53.084Z,98858.08
2023-04-18T11:53:38.101Z,98863.72
2023-04-18T11:56:07.040Z,98857.77
2023-04-18T11:58:36.511Z,98850.42
2023-04-18T12:01:25.369Z,98848.88
2023-04-18T12:04:01.418Z,98853.27
2023-04-18T12:06:46.632Z,98859.42
2023-04-18T12:09:15.908Z,98850.56
2023-04-18T12:11:44.596Z,98850.98
2023-04-18T12:14:22.297Z,98855.04
2023-04-18T12:16:51.331Z,98852.23
2023-04-18T12:19:20.855Z,98849.36
2023-04-18T12:22:06.848Z,98847.93
2023-04-18T12:24:36.207Z,98846.66
2023-04-18T12:27:04.495Z,98848.05
2023-04-18T12:29:40.902Z,98850.89
2023-04-18T12:32:08.910Z,98847.48
2023-04-18T12:34:36.938Z,98844.69
2023-04-18T12:37:05.140Z,98850.05
2023-04-18T12:39:33.265Z,98845.15
2023-04-18T12:42:02.365Z,98844.30
2023-04-18T12:44:30.619Z,98840.59
2023-04-18T12:46:58.839Z,98840.45
2023-04-18T12:49:26.979Z,98837.02
2023-04-18T12:51:54.985Z,98834.63
2023-04-18T12:54:22.953Z,98831.30
2023-04-18T12:56:50.958Z,98832.60
2023-04-18T12:59:18.854Z,98833.14
2023-04-18T13:01:46.888Z,98829.58
2023-04-18T13:04:15.401Z,98833.65
2023-04-18T13:06:43.678Z,98832.27
2023-04-18T13:09:12.142Z,98831.14
2023-04-18T13:11:40.340Z,98823.62
2023-04-18T13:14:08.438Z,98828.84
2023-04-18T13:16:36.612Z,98825.55
2023-04-18T13:19:04.599Z,98821.98
2023-04-18T13:21:32.543Z,98822.81
2023-04-18T13:24:01.126Z,98820.56
2023-04-18T13:26:29.267Z,98824.81
2023-04-18T13:28:57.449Z,98824.86
2023-04-18T13:31:25.790Z,98820.66
2023-04-18T13:33:53.742Z,98820.95
2023-04-18T13:36:21.760Z,98822.95
2023-04-18T13:38:51.514Z,98824.83
2023-04-18T13:41:19.548Z,98821.06
2023-04-18T13:43:47.521Z,98822.05
2023-04-18T13:46:15.562Z,98825.42
2023-04-18T13:48:43.557Z,98823.89
2023-04-18T13:51:11.529Z,98821.89
2023-04-18T13:53:39.550Z,98825.14
2023-04-18T13:56:07.964Z,98822.21
2023-04-18T13:58:36.292Z,98823.33
2023-04-18T14:01:04.396Z,98824.52
2023-04-18T14:03:34.160Z,98826.30
2023-04-18T14:06:03.883Z,98825.08
2023-04-18T14:08:31.975Z,98825.44
2023-04-18T14:10:59.957Z,98827.84
2023-04-18T14:13:28.198Z,98823.54
2023-04-18T14:15:56.241Z,98826.35
2023-04-18T14:18:24.772Z,98824.92
2023-04-18T14:20:52.796Z,98823.84
2023-04-18T14:23:22.925Z,98823.17
2023-04-18T14:25:51.224Z,98823.52
2023-04-18T14:28:21.653Z,98822.37
2023-04-18T14:30:49.714Z,98821.83
2023-04-18T14:33:18.504Z,98824.45
2023-04-18T14:35:46.502Z,98824.09
2023-04-18T14:38:14.518Z,98825.19
2023-04-18T14:40:42.518Z,98826.63
2023-04-18T14:43:10.431Z,98822.20
2023-04-18T14:45:38.357Z,98824.60
2023-04-18T14:48:08.134Z,98826.84
2023-04-18T14:50:38.697Z,98830.97
2023-04-18T14:53:07.685Z,98829.34
2023-04-18T14:55:36.106Z,98824.62
2023-04-18T14:58:04.399Z,98827.66
2023-04-18T15:00:33.273Z,98821.45
2023-04-18T15:03:01.538Z,98824.63
2023-04-18T15:05:29.713Z,98821.23
2023-04-18T15:07:58.367Z,98824.46
2023-04-18T15:10:26.845Z,98827.62
2023-04-18T15:12:54.834Z,98828.83
2023-04-18T15:15:22.903Z,98823.45
2023-04-18T15:17:51.319Z,98826.81
2023-04-18T15:20:22.460Z,98823.29
2023-04-18T15:22:51.922Z,98828.92
2023-04-18T15:25:21.134Z,98825.40
2023-04-18T15:27:49.317Z,98823.54
2023-04-18T15:30:17.450Z,98823.52
2023-04-18T15:32:45.702Z,98822.68
2023-04-18T15:35:14.337Z,98824.33
2023-04-18T15:37:42.325Z,98826.09
2023-04-18T15:40:11.512Z,98825.02
2023-04-18T15:42:39.511Z,98821.91
2023-04-18T15:45:08.131Z,98820.58
2023-04-18T15:47:36.335Z,98822.30
2023-04-18T15:50:04.922Z,98824.87
2023-04-18T15:52:33.166Z,98823.69
2023-04-18T15:55:01.443Z,98825.00
2023-04-18T15:57:29.891Z,98826.63
2023-04-18T15:59:59.652Z,98825.43
2023-04-18T16:02:28.003Z,98827.15
2023-04-18T16:04:56.202Z,98823.69
2023-04-18T16:07:24.164Z,98825.21
2023-04-18T16:09:52.302Z,98826.92
2023-04-18T16:12:20.348Z,98823.77
2023-04-18T16:14:48.327Z,98824.60
2023-04-18T16:17:16.384Z,98825.92
2023-04-18T16:19:44.424Z,98828.57
2023-04-18T16:22:12.617Z,98830.23
2023-04-18T16:24:42.166Z,98829.25
2023-04-18T16:27:10.540Z,98828.89
2023-04-18T16:29:38.794Z,98828.48
2023-04-18T16:32:06.925Z,98826.67
2023-04-18T16:34:35.051Z,98830.52
2023-04-18T16:37:03.228Z,98832.63
2023-04-18T16:39:31.351Z,98832.97
2023-04-18T16:41:59.501Z,98831.20
2023-04-18T16:44:27.681Z,98835.67
2023-04-18T16:46:55.705Z,98834.40
2023-04-18T16:49:23.840Z,98834.55
2023-04-18T16:51:52.165Z,98824.53
2023-04-18T16:54:20.317Z,98836.77
2023-04-18T16:56:50.790Z,98833.53
2023-04-18T16:59:18.709Z,98831.66
2023-04-18T17:01:47.003Z,98834.42
2023-04-18T17:04:17.587Z,98834.27
2023-04-18T17:06:46.690Z,98832.02
2023-04-18T17:09:15.186Z,98835.81
2023-04-18T17:11:43.658Z,98834.48
2023-04-18T17:14:11.988Z,98833.66
2023-04-18T17:16:42.120Z,98837.69
2023-04-18T17:19:10.545Z,98838.92
2023-04-18T17:21:38.651Z,98842.02
2023-04-18T17:24:07.423Z,98844.55
2023-04-18T17:26:37.164Z,98846.50
2023-04-18T17:29:05.445Z,98845.38
2023-04-18T17:31:34.097Z,98850.84
2023-04-18T17:34:03.662Z,98851.29
2023-04-18T17:36:31.778Z,98850.13
2023-04-18T17:39:06.807Z,98849.27
2023-04-18T17:41:37.896Z,98852.46
2023-04-18T17:44:07.730Z,98855.56
2023-04-18T17:46:36.198Z,98853.05
2023-04-18T17:49:04.891Z,98853.62
2023-04-18T17:51:33.027Z,98858.61
2023-04-18T17:54:01.043Z,98859.90
2023-04-18T17:56:30.557Z,98862.92
2023-04-18T17:58:58.600Z,98860.95
2023-04-18T18:01:30.273Z,98862.61
2023-04-18T18:03:58.923Z,98861.13
2023-04-18T18:06:29.873Z,98865.35
2023-04-18T18:08:57.774Z,98864.03
2023-04-18T18:11:28.330Z,98869.03
2023-04-18T18:13:58.250Z,98873.54
2023-04-18T18:16:26.586Z,98869.30
2023-04-18T18:18:54.780Z,98873.24
2023-04-18T18:21:23.022Z,98872.98
2023-04-18T18:23:51.038Z,98871.45
2023-04-18T18:26:19.082Z,98874.83
2023-04-18T18:28:47.033Z,98872.13
2023-04-18T18:31:14.948Z,98876.65
2023-04-18T18:33:43.057Z,98873.08
2023-04-18T18:36:11.194Z,98877.11
2023-04-18T18:38:39.075Z,98877.59
2023-04-18T18:41:08.003Z,98878.08
2023-04-18T18:43:36.130Z,98874.85
2023-04-18T18:46:04.206Z,98873.77
2023-04-18T18:48:32.977Z,98872.23
2023-04-18T18:51:01.521Z,98874.52
2023-04-18T18:53:29.647Z,98873.72
2023-04-18T18:55:57.604Z,98874.65
2023-04-18T18:58:26.094Z,98871.61
2023-04-18T19:00:56.197Z,98870.98
2023-04-18T19:03:25.335Z,98871.95
2023-04-18T19:05:53.460Z,98872.61
2023-04-18T19:08:21.393Z,98870.65
2023-04-18T19:10:50.684Z,98872.69
2023-04-18T19:13:22.926Z,98866.28
2023-04-18T19:15:51.317Z,98869.05
2023-04-18T19:18:21.341Z,98870.46
2023-04-18T19:20:50.453Z,98869.40
2023-04-18T19:23:19.524Z,98871.46
2023-04-18T19:25:47.448Z,98867.27
2023-04-18T19:28:18.307Z,98865.84
2023-04-18T19:30:46.599Z,98864.73
2023-04-18T19:33:14.766Z,98865.80
2023-04-18T19:35:44.421Z,98861.30
2023-04-18T19:38:12.518Z,98865.36
2023-04-18T19:40:40.526Z,98856.09
2023-04-18T19:43:08.821Z,98861.75
2023-04-18T19:45:37.209Z,98863.71
2023-04-18T19:48:05.877Z,98860.30
2023-04-18T19:50:33.859Z,98860.25
2023-04-18T19:53:01.816Z,98860.70
2023-04-18T19:55:31.689Z,98856.48
2023-04-18T19:58:00.014Z,98857.63
2023-04-18T20:00:28.569Z,98856.59
2023-04-18T20:02:58.836Z,98852.81
2023-04-18T20:05:27.363Z,98850.91
2023-04-18T20:07:55.359Z,98853.06
2023-04-18T20:10:23.382Z,98852.83
2023-04-18T20:12:51.421Z,98852.55
2023-04-18T20:15:19.414Z,98847.09
2023-04-18T20:17:47.504Z,98843.95
2023-04-18T20:20:15.597Z,98839.85
2023-04-18T20:22:44.829Z,98838.90
2023-04-18T20:25:12.824Z,98842.58
2023-04-18T20:27:40.918Z,98837.56
2023-04-18T20:30:09.055Z,98833.36
2023-04-18T20:32:37.039Z,98836.92
2023-04-18T20:35:05.653Z,98834.23
2023-04-18T20:37:36.676Z,98834.86
2023-04-18T20:40:07.982Z,98832.20
2023-04-18T20:42:36.801Z,98820.29
2023-04-18T20:45:22.927Z,98825.69
2023-04-18T20:47:51.050Z,98820.49
2023-04-18T20:50:20.564Z,98819.08
2023-04-18T20:52:48.571Z,98819.10
2023-04-18T20:55:18.317Z,98815.28
2023-04-18T20:57:46.268Z,98814.42
2023-04-18T21:00:14.512Z,98809.77
2023-04-18T21:02:43.688Z,98806.88
2023-04-18T21:05:12.216Z,98811.40
2023-04-18T21:07:40.369Z,98805.11
2023-04-18T21:10:08.610Z,98800.61
2023-04-18T21:12:36.699Z,98798.92
2023-04-18T21:15:05.591Z,98799.70
2023-04-18T21:17:33.721Z,98801.58
2023-04-18T21:20:02.079Z,98795.02
2023-04-18T21:22:30.003Z,98786.34
2023-04-18T21:24:57.940Z,98785.88
2023-04-18T21:27:26.213Z,98781.04
2023-04-18T21:29:54.113Z,98782.01
2023-04-18T21:32:22.082Z,98781.48
2023-04-18T21:34:50.081Z,98779.34
2023-04-18T21:37:18.111Z,98776.96
2023-04-18T21:39:46.214Z,98770.69
2023-04-18T21:42:14.200Z,98775.77
2023-04-18T21:44:42.121Z,98773.25
2023-04-18T21:47:10.227Z,98768.98
2023-04-18T21:49:38.226Z,98768.86
2023-04-18T21:52:06.231Z,98764.36
2023-04-18T21:54:34.243Z,98765.14
2023-04-18T21:57:02.823Z,98761.70
2023-04-18T21:59:31.109Z,98759.30
2023-04-18T22:01:59.219Z,98762.52
2023-04-18T22:04:27.798Z,98759.55
2023-04-18T22:06:59.956Z,98757.20
2023-04-18T22:09:28.626Z,98756.41
2023-04-18T22:11:57.123Z,98749.67
2023-04-18T22:14:26.079Z,98751.61
2023-04-18T22:16:54.796Z,98747.84
2023-04-18T22:19:22.896Z,98746.96
2023-04-18T22:21:51.503Z,98747.40
2023-04-18T22:24:19.751Z,98739.77
2023-04-18T22:26:48.243Z,98739.15
2023-04-18T22:29:16.303Z,98737.42
2023-04-18T22:31:44.522Z,98730.95
2023-04-18T22:34:12.807Z,98729.84
2023-04-18T22:36:42.874Z,98727.84
2023-04-18T22:39:12.354Z,98726.05
2023-04-18T22:41:40.554Z,98722.62
2023-04-18T22:44:08.471Z,98722.50
2023-04-18T22:46:38.638Z,98716.84
2023-04-18T22:49:07.441Z,98710.48
2023-04-18T22:51:35.479Z,98709.08
2023-04-18T22:54:03.509Z,98707.15
2023-04-18T22:56:31.462Z,98705.20
2023-04-18T22:58:59.463Z,98703.78
2023-04-18T23:01:27.478Z,98699.06
2023-04-18T23:03:56.020Z,98694.51
2023-04-18T23:06:24.140Z,98694.35
2023-04-18T23:08:52.212Z,98689.48
2023-04-18T23:11:20.098Z,98684.89
2023-04-18T23:13:48.002Z,98684.98
2023-04-18T23:16:16.088Z,98679.55
2023-04-18T23:18:44.382Z,98675.23
2023-04-18T23:21:12.552Z,98666.14
2023-04-18T23:23:40.562Z,98666.89
2023-04-18T23:26:15.060Z,98659.45
2023-04-18T23:28:43.203Z,98657.40
2023-04-18T23:31:11.342Z,98655.58
2023-04-18T23:33:39.302Z,98650.58
2023-04-18T23:36:07.838Z,98648.13
2023-04-18T23:38:44.031Z,98642.79
2023-04-18T23:41:11.951Z,98638.89
2023-04-18T23:43:39.863Z,98634.98
2023-04-18T23:46:07.835Z,98634.23
2023-04-18T23:48:36.058Z,98633.08
2023-04-18T23:51:04.071Z,98627.58
2023-04-18T23:53:32.246Z,98626.19
2023-04-18T23:56:00.146Z,98622.79
2023-04-18T23:58:28.267Z,98618.83
